Time;durP1;ratioP1;P1;durP2;ratioP2;P2;SDS_P1;SDS_P2;PMS_P1;PMS_P2;Temp;Humidity;BMP_temperature;BMP_pressure;BME280_temperature;BME280_humidity;BME280_pressure;Samples;Min_cycle;Max_cycle;Signal;HPM_P1;HPM_P2
2022/08/11 00:02:08;;;;;;;8.32;5.60;;;12.40;99.90;;;;;;5036577;28;20032;-69
2022/08/11 00:04:35;;;;;;;9.77;6.50;;;12.40;99.90;;;;;;5036589;28;20033;-69
2022/08/11 00:07:03;;;;;;;10.10;6.93;;;12.40;99.90;;;;;;5037003;28;20101;-69
2022/08/11 00:09:36;;;;;;;12.02;6.80;;;12.40;99.90;;;;;;5036349;28;20526;-69
2022/08/11 00:12:02;;;;;;;8.85;7.15;;;12.40;99.90;;;;;;5036470;28;20424;-68
2022/08/11 00:14:32;;;;;;;10.75;8.68;;;12.40;99.90;;;;;;5035998;28;20060;-68
2022/08/11 00:17:04;;;;;;;10.00;7.20;;;12.30;99.90;;;;;;5036079;28;20048;-68
2022/08/11 00:19:34;;;;;;;11.20;7.05;;;12.30;99.90;;;;;;5036266;28;20025;-68
2022/08/11 00:22:01;;;;;;;13.98;6.90;;;12.20;99.90;;;;;;5036189;28;20044;-67
2022/08/11 00:24:36;;;;;;;11.68;5.68;;;12.20;99.90;;;;;;5035983;28;20030;-69
2022/08/11 00:27:03;;;;;;;8.23;5.85;;;12.20;99.90;;;;;;5034565;28;20495;-68
2022/08/11 00:29:29;;;;;;;8.27;6.60;;;12.10;99.90;;;;;;5035286;28;20029;-68
2022/08/11 00:31:56;;;;;;;10.80;6.75;;;12.00;99.90;;;;;;5036020;28;20022;-68
2022/08/11 00:34:28;;;;;;;10.32;6.82;;;12.00;99.90;;;;;;5035826;28;20087;-69
2022/08/11 00:37:00;;;;;;;13.32;7.05;;;12.10;99.90;;;;;;5035814;28;20037;-69
2022/08/11 00:39:27;;;;;;;8.23;7.43;;;12.10;99.90;;;;;;5036233;28;20504;-69
2022/08/11 00:42:12;;;;;;;7.38;6.07;;;12.10;99.90;;;;;;5035850;28;20025;-67
2022/08/11 00:45:19;;;;;;;8.80;6.82;;;12.00;99.90;;;;;;5036037;28;20390;-67
2022/08/11 00:48:21;;;;;;;11.88;7.32;;;12.00;99.90;;;;;;5035931;28;20029;-67
2022/08/11 00:51:25;;;;;;;9.55;6.57;;;12.00;99.90;;;;;;5035736;28;20036;-67
2022/08/11 00:54:26;;;;;;;9.98;8.43;;;11.90;99.90;;;;;;5035669;28;20029;-67
2022/08/11 00:57:18;;;;;;;9.75;7.65;;;11.90;99.90;;;;;;5035510;28;20025;-67
2022/08/11 00:59:46;;;;;;;11.98;8.30;;;11.90;99.90;;;;;;5034700;28;20029;-68
2022/08/11 01:02:16;;;;;;;10.32;7.75;;;11.80;99.90;;;;;;5034608;28;20541;-67
2022/08/11 01:04:44;;;;;;;10.45;8.05;;;11.80;99.90;;;;;;5035469;28;20033;-67
2022/08/11 01:07:33;;;;;;;9.60;7.93;;;11.80;99.90;;;;;;5035275;28;20025;-67
2022/08/11 01:10:29;;;;;;;10.48;7.07;;;11.80;99.90;;;;;;5016243;28;20025;-69
2022/08/11 01:13:14;;;;;;;12.27;7.28;;;11.80;99.90;;;;;;5035369;28;20370;-69
2022/08/11 01:16:12;;;;;;;12.18;7.22;;;11.70;99.90;;;;;;5034870;28;20079;-67
2022/08/11 01:19:04;;;;;;;10.45;7.63;;;11.70;99.90;;;;;;5015437;28;20037;-69
2022/08/11 01:21:44;;;;;;;8.73;7.68;;;11.60;99.90;;;;;;5015926;28;20022;-69
2022/08/11 01:24:35;;;;;;;11.02;9.52;;;11.60;99.90;;;;;;5015367;28;20030;-68
2022/08/11 01:27:22;;;;;;;7.75;6.88;;;11.60;99.90;;;;;;5015467;28;20470;-68
2022/08/11 01:30:33;;;;;;;10.05;7.95;;;11.50;99.90;;;;;;5015480;28;20478;-68
2022/08/11 01:33:36;;;;;;;9.25;7.30;;;11.50;99.90;;;;;;5019931;28;20029;-68
2022/08/11 01:36:40;;;;;;;10.43;7.35;;;11.50;99.90;;;;;;5075915;22;20133;-68
2022/08/11 01:39:30;;;;;;;7.82;6.70;;;11.50;99.90;;;;;;5035112;28;20021;-68
2022/08/11 01:45:35;;;;;;;11.95;6.88;;;11.40;99.90;;;;;;5034712;28;20448;-69
2022/08/11 01:48:04;;;;;;;;;;;11.40;99.90;;;;;;5035609;28;20071;-69
2022/08/11 01:50:41;;;;;;;7.20;5.32;;;11.30;99.90;;;;;;5033909;28;19909;-69
2022/08/11 01:53:29;;;;;;;8.70;6.38;;;11.20;99.90;;;;;;5033407;28;20047;-69
2022/08/11 01:56:19;;;;;;;10.25;6.45;;;11.20;99.90;;;;;;5034514;28;20028;-69
2022/08/11 01:59:07;;;;;;;10.38;6.47;;;11.20;99.90;;;;;;5034309;28;20022;-69
2022/08/11 02:01:59;;;;;;;9.43;5.82;;;11.10;99.90;;;;;;5034600;28;20029;-69
2022/08/11 02:04:34;;;;;;;15.13;6.80;;;11.10;99.90;;;;;;5034163;28;20075;-69
2022/08/11 02:07:25;;;;;;;9.00;8.07;;;11.10;99.90;;;;;;5032692;28;20572;-69
2022/08/11 02:13:46;;;;;;;9.30;6.20;;;11.00;99.90;;;;;;5034581;28;20088;-69
2022/08/11 02:16:23;;;;;;;6.53;5.75;;;11.00;99.90;;;;;;5033926;28;20545;-69
2022/08/11 02:25:40;;;;;;;10.85;6.55;;;10.90;99.90;;;;;;5014201;28;20041;-68
2022/08/11 02:28:39;;;;;;;8.75;6.72;;;10.90;99.90;;;;;;5014389;28;20032;-68
2022/08/11 02:34:18;;;;;;;12.43;7.83;;;10.80;99.90;;;;;;5026291;28;20032;-68
2022/08/11 02:36:55;;;;;;;15.35;7.53;;;10.70;99.90;;;;;;5033953;28;20370;-68
2022/08/11 02:39:27;;;;;;;12.18;7.88;;;10.70;99.90;;;;;;5032883;28;20033;-69
2022/08/11 02:42:23;;;;;;;11.85;7.18;;;10.60;99.90;;;;;;5033961;28;20105;-69
2022/08/11 02:45:08;;;;;;;14.30;7.88;;;10.60;99.90;;;;;;5033494;28;20031;-68
2022/08/11 02:51:04;;;;;;;8.20;7.03;;;10.50;99.90;;;;;;5033770;28;20028;-68
2022/08/11 02:53:45;;;;;;;9.63;6.78;;;10.50;99.90;;;;;;5033527;28;20029;-69
2022/08/11 02:56:29;;;;;;;8.35;6.70;;;10.50;99.90;;;;;;5013725;28;20036;-68
2022/08/11 03:02:08;;;;;;;12.68;9.00;;;10.50;99.90;;;;;;5033942;28;20036;-68
2022/08/11 03:04:48;;;;;;;9.77;7.28;;;10.50;99.90;;;;;;5033212;28;20466;-68
2022/08/11 03:07:24;;;;;;;11.48;7.25;;;10.40;99.90;;;;;;5033194;28;20022;-68
2022/08/11 03:09:59;;;;;;;10.48;7.90;;;10.40;99.90;;;;;;5031953;28;20025;-68
2022/08/11 03:18:26;;;;;;;16.80;11.77;;;10.30;99.90;;;;;;5033806;28;20444;-68
2022/08/11 03:21:24;;;;;;;23.70;19.50;;;10.40;99.90;;;;;;5037286;28;20179;-68
2022/08/11 03:24:30;;;;;;;12.00;10.35;;;10.30;99.90;;;;;;5036414;28;20397;-68
2022/08/11 03:27:12;;;;;;;10.77;8.15;;;10.30;99.90;;;;;;5037268;28;20116;-68
2022/08/11 03:29:55;;;;;;;10.20;6.55;;;10.30;99.90;;;;;;5037275;28;20057;-68
2022/08/11 03:32:31;;;;;;;11.52;8.57;;;10.30;99.90;;;;;;5037666;28;20101;-68
2022/08/11 03:35:00;;;;;;;10.70;6.82;;;10.20;99.90;;;;;;5037078;28;20052;-68
2022/08/11 03:37:55;;;;;;;8.50;6.63;;;10.20;99.90;;;;;;5035987;28;20048;-68
2022/08/11 03:43:50;;;;;;;7.22;5.80;;;10.10;99.90;;;;;;5037266;28;20385;-68
2022/08/11 03:46:37;;;;;;;8.35;7.05;;;10.10;99.90;;;;;;5036833;28;20026;-68
2022/08/11 03:49:40;;;;;;;15.90;12.18;;;10.10;99.90;;;;;;5036837;28;20017;-68
2022/08/11 03:52:42;;;;;;;10.35;8.27;;;10.10;99.90;;;;;;5036037;28;20455;-68
2022/08/11 03:55:52;;;;;;;10.60;7.43;;;10.10;99.90;;;;;;5016842;28;20033;-68
2022/08/11 03:58:47;;;;;;;9.32;7.45;;;10.10;99.90;;;;;;5001700;28;20497;-68
2022/08/11 04:01:21;;;;;;;9.40;7.70;;;10.10;99.90;;;;;;5034396;28;20057;-68
2022/08/11 04:04:25;;;;;;;8.45;7.55;;;10.10;99.90;;;;;;5037380;28;20418;-68
2022/08/11 04:07:17;;;;;;;11.18;8.35;;;10.20;99.90;;;;;;5031788;28;20049;-68
2022/08/11 04:10:01;;;;;;;14.25;8.98;;;10.20;99.90;;;;;;5037012;28;20040;-69
2022/08/11 04:12:54;;;;;;;8.65;7.10;;;10.20;99.90;;;;;;5036513;28;20104;-68
2022/08/11 04:16:00;;;;;;;13.18;9.82;;;10.20;99.90;;;;;;5036446;28;20028;-68
2022/08/11 04:18:54;;;;;;;11.85;9.55;;;10.20;99.90;;;;;;5036313;28;20017;-68
2022/08/11 04:21:45;;;;;;;14.48;7.15;;;10.30;99.90;;;;;;5035402;28;20033;-69
2022/08/11 04:24:34;;;;;;;15.43;9.68;;;10.20;99.90;;;;;;5036361;28;20116;-68
2022/08/11 04:27:26;;;;;;;15.82;12.00;;;10.30;99.90;;;;;;5036658;28;20525;-68
2022/08/11 04:30:13;;;;;;;12.32;11.00;;;10.30;99.90;;;;;;5035794;28;20124;-68
2022/08/11 04:32:57;;;;;;;11.15;9.25;;;10.30;99.90;;;;;;5017020;28;20022;-69
2022/08/11 04:35:32;;;;;;;11.45;7.80;;;10.40;99.90;;;;;;5031699;28;20041;-69
2022/08/11 04:38:31;;;;;;;9.32;6.97;;;10.40;99.90;;;;;;5036182;28;20037;-69
2022/08/11 04:41:13;;;;;;;8.68;6.47;;;10.50;99.90;;;;;;5036416;28;20095;-69
2022/08/11 04:43:58;;;;;;;8.20;6.53;;;10.50;99.90;;;;;;5035688;28;20029;-69
2022/08/11 04:46:29;;;;;;;14.85;12.20;;;10.60;99.90;;;;;;5035684;28;20021;-68
2022/08/11 05:02:14;;;;;;;29.05;22.50;;;11.10;99.90;;;;;;5034548;28;20160;-68
2022/08/11 05:07:47;;;;;;;23.30;18.52;;;11.40;99.90;;;;;;5035565;28;20021;-69
2022/08/11 05:10:18;;;;;;;21.10;15.88;;;11.60;99.90;;;;;;5035461;28;20030;-69
2022/08/11 05:27:09;;;;;;;22.50;17.08;;;11.60;99.90;;;;;;5034087;28;20029;-69
2022/08/11 05:36:21;;;;;;;18.15;12.85;;;12.90;99.90;;;;;;5034712;28;20439;-69
2022/08/11 05:58:35;;;;;;;38.60;31.17;;;14.70;99.90;;;;;;5014721;28;20036;-69
2022/08/11 06:01:01;;;;;;;32.38;25.90;;;15.00;99.90;;;;;;5015138;28;20417;-69
2022/08/11 06:03:29;;;;;;;39.40;30.10;;;15.20;99.90;;;;;;5014312;28;20034;-68
2022/08/11 06:05:57;;;;;;;51.40;40.60;;;15.50;99.90;;;;;;5034184;28;20100;-69
2022/08/11 06:08:31;;;;;;;37.97;29.55;;;15.70;99.90;;;;;;5034507;28;20489;-69
2022/08/11 06:11:03;;;;;;;47.65;38.47;;;15.90;99.90;;;;;;5034443;28;20033;-69
2022/08/11 06:13:30;;;;;;;40.22;30.60;;;16.20;99.90;;;;;;5034133;28;20367;-69
2022/08/11 06:15:57;;;;;;;42.53;31.60;;;16.40;99.90;;;;;;5034259;28;20478;-69
2022/08/11 06:18:24;;;;;;;29.02;18.95;;;16.60;99.90;;;;;;5032981;28;20034;-68
2022/08/11 06:20:53;;;;;;;27.90;19.48;;;16.80;99.90;;;;;;5033993;28;20029;-69
2022/08/11 06:23:22;;;;;;;19.05;12.30;;;17.00;99.90;;;;;;5034009;28;20040;-69
2022/08/11 06:25:50;;;;;;;18.92;12.43;;;17.20;99.90;;;;;;5032044;28;20381;-69
2022/08/11 06:28:18;;;;;;;18.67;10.05;;;17.40;99.90;;;;;;5030904;28;20032;-69
2022/08/11 06:30:45;;;;;;;12.80;7.57;;;17.50;99.90;;;;;;5034673;28;20091;-69
2022/08/11 06:33:29;;;;;;;13.57;8.23;;;17.70;99.90;;;;;;5032012;28;20470;-69
2022/08/11 06:36:00;;;;;;;11.20;7.18;;;18.00;99.90;;;;;;5033939;28;20033;-69
2022/08/11 06:38:44;;;;;;;12.23;6.30;;;18.20;99.90;;;;;;5033921;28;20034;-68
2022/08/11 06:41:30;;;;;;;9.02;6.47;;;18.30;99.90;;;;;;5034224;28;20025;-69
2022/08/11 06:44:15;;;;;;;11.23;5.10;;;18.60;99.90;;;;;;5013829;28;20034;-69
2022/08/11 06:46:49;;;;;;;9.05;5.15;;;18.80;99.90;;;;;;5013888;28;20433;-69
2022/08/11 06:52:05;;;;;;;8.20;5.35;;;19.20;99.90;;;;;;5013395;28;20024;-69
2022/08/11 06:54:35;;;;;;;8.98;4.38;;;19.40;99.90;;;;;;5030342;28;20032;-68
2022/08/11 07:02:36;;;;;;;6.72;3.28;;;20.00;99.90;;;;;;5033491;28;20032;-68
2022/08/11 07:05:20;;;;;;;6.82;2.75;;;20.30;99.90;;;;;;5033016;28;20026;-67
2022/08/11 07:17:13;;;;;;;4.60;2.30;;;21.10;99.90;;;;;;5032456;28;20080;-68
2022/08/11 07:28:54;;;;;;;9.05;2.72;;;21.50;99.90;;;;;;5034014;28;20044;-68
2022/08/11 07:31:20;;;;;;;4.97;2.92;;;22.10;99.90;;;;;;5034056;28;20496;-68
2022/08/11 07:36:41;;;;;;;4.03;1.63;;;22.40;99.90;;;;;;5057093;23;20053;-66
2022/08/11 07:39:15;;;;;;;7.82;2.70;;;22.70;99.90;;;;;;5033067;28;20081;-67
2022/08/11 07:41:41;;;;;;;3.90;2.03;;;22.80;99.90;;;;;;5033022;28;20056;-67
2022/08/11 07:44:08;;;;;;;7.03;2.22;;;22.90;99.90;;;;;;5032807;28;20030;-67
2022/08/11 07:52:29;;;;;;;16.08;2.17;;;23.40;99.90;;;;;;5033277;28;20028;-68
2022/08/11 07:55:01;;;;;;;7.45;2.10;;;23.60;99.90;;;;;;5032820;28;20027;-67
2022/08/11 08:19:32;;;;;;;5.68;1.65;;;25.00;99.90;;;;;;5036559;28;20031;-67
2022/08/11 08:21:58;;;;;;;3.25;1.38;;;25.20;99.90;;;;;;5036543;28;20104;-68
2022/08/11 08:24:24;;;;;;;2.28;1.30;;;25.40;99.90;;;;;;5036061;28;20474;-68
2022/08/11 08:26:59;;;;;;;4.30;1.50;;;25.60;99.90;;;;;;5034844;28;20032;-68
2022/08/11 08:32:20;;;;;;;6.90;1.58;;;25.70;99.90;;;;;;5036645;28;20373;-67
2022/08/11 08:34:49;;;;;;;5.50;1.60;;;25.80;99.90;;;;;;5035918;28;20026;-67
2022/08/11 08:37:18;;;;;;;5.55;1.50;;;25.90;99.90;;;;;;5036005;28;20029;-67
2022/08/11 08:39:47;;;;;;;5.30;1.38;;;26.10;99.90;;;;;;5035105;28;20032;-67
2022/08/11 08:42:17;;;;;;;7.78;1.63;;;26.10;99.90;;;;;;5034770;28;20032;-67
2022/08/11 08:44:49;;;;;;;12.98;1.83;;;26.20;99.90;;;;;;5036050;28;20033;-67
2022/08/11 08:47:18;;;;;;;4.55;1.10;;;26.30;99.90;;;;;;5036151;28;20114;-68
2022/08/11 08:49:48;;;;;;;2.78;1.27;;;26.50;99.90;;;;;;5036005;28;20026;-68
2022/08/11 08:52:17;;;;;;;10.43;1.27;;;26.60;99.90;;;;;;5034890;28;20025;-68
2022/08/11 08:54:44;;;;;;;8.52;1.23;;;26.80;99.90;;;;;;5035547;28;20029;-68
2022/08/11 08:57:12;;;;;;;8.18;1.88;;;27.00;99.90;;;;;;5035901;28;20029;-67
2022/08/11 08:59:44;;;;;;;3.63;1.33;;;26.90;99.90;;;;;;5036496;28;20036;-68
2022/08/11 09:02:12;;;;;;;3.83;1.23;;;26.90;99.90;;;;;;5035940;28;20022;-68
2022/08/11 09:04:39;;;;;;;3.88;1.10;;;27.20;99.90;;;;;;5034771;28;20025;-68
2022/08/11 09:07:11;;;;;;;4.32;1.20;;;27.40;99.90;;;;;;5034786;28;20017;-68
2022/08/11 09:09:47;;;;;;;5.68;1.13;;;27.70;99.90;;;;;;5036453;28;20117;-67
2022/08/11 09:12:14;;;;;;;5.35;1.50;;;27.90;99.90;;;;;;5035689;28;20029;-67
2022/08/11 09:15:02;;;;;;;4.55;1.10;;;28.00;99.90;;;;;;5035276;28;20416;-67
2022/08/11 09:18:02;;;;;;;1.92;1.10;;;28.20;99.90;;;;;;5034442;28;20087;-67
2022/08/11 09:20:32;;;;;;;5.20;1.65;;;28.30;99.90;;;;;;5035492;28;20036;-67
2022/08/11 09:28:44;;;;;;;1.25;1.00;;;28.60;99.90;;;;;;5035085;28;20113;-67
2022/08/11 09:31:12;;;;;;;2.03;0.93;;;28.70;99.90;;;;;;5035256;28;20028;-67
2022/08/11 09:33:39;;;;;;;2.25;0.93;;;28.80;99.90;;;;;;5034985;28;20502;-68
2022/08/11 09:41:47;;;;;;;5.80;1.13;;;28.90;99.90;;;;;;5034364;28;20631;-67
2022/08/11 09:46:58;;;;;;;10.63;1.15;;;29.10;99.90;;;;;;5034651;28;20024;-68
2022/08/11 09:49:25;;;;;;;2.80;0.90;;;29.30;99.90;;;;;;5034930;28;20025;-67
2022/08/11 09:51:51;;;;;;;4.35;1.20;;;29.50;99.90;;;;;;5034842;28;20040;-67
2022/08/11 09:54:18;;;;;;;2.95;1.00;;;29.40;99.90;;;;;;5033425;28;20029;-67
2022/08/11 09:59:28;;;;;;;3.92;0.65;;;29.30;99.90;;;;;;5034664;28;20453;-68
2022/08/11 10:01:58;;;;;;;3.60;1.27;;;29.60;99.90;;;;;;5034388;28;20053;-67
2022/08/11 10:04:33;;;;;;;3.10;1.20;;;29.80;99.90;;;;;;5035276;28;20032;-67
2022/08/11 10:07:00;;;;;;;2.05;1.10;;;29.90;99.90;;;;;;5034599;28;20439;-67
2022/08/11 10:09:32;;;;;;;2.63;0.95;;;29.90;99.90;;;;;;5034524;28;20501;-67
2022/08/11 10:12:01;;;;;;;3.83;1.23;;;29.80;99.90;;;;;;5032079;28;20072;-68
2022/08/11 10:17:17;;;;;;;3.28;1.10;;;29.60;99.90;;;;;;5034612;28;20032;-68
2022/08/11 10:19:46;;;;;;;6.05;1.00;;;29.30;99.90;;;;;;5034913;28;20029;-69
2022/08/11 10:27:44;;;;;;;6.57;1.08;;;30.30;99.90;;;;;;5032697;28;20083;-67
2022/08/11 10:35:43;;;;;;;5.38;1.13;;;31.00;99.90;;;;;;5033956;28;20091;-68
2022/08/11 10:38:13;;;;;;;4.00;1.33;;;31.00;99.90;;;;;;5033642;28;20025;-68
2022/08/11 10:40:44;;;;;;;3.78;1.15;;;30.80;99.90;;;;;;5033673;28;20056;-67
2022/08/11 10:43:13;;;;;;;3.05;0.90;;;30.90;99.90;;;;;;5032791;28;20032;-69
2022/08/11 10:48:30;;;;;;;9.20;1.30;;;31.00;99.90;;;;;;5034223;28;20484;-69
2022/08/11 10:51:12;;;;;;;8.18;1.25;;;31.00;99.90;;;;;;5033848;28;20374;-67
2022/08/11 10:59:13;;;;;;;2.80;1.08;;;30.80;99.90;;;;;;5033013;28;20044;-69
2022/08/11 11:01:42;;;;;;;7.03;1.20;;;30.60;98.10;;;;;;5031743;28;20037;-69
2022/08/11 11:04:18;;;;;;;1.15;0.73;;;30.20;97.20;;;;;;5032795;28;20047;-68
2022/08/11 11:07:04;;;;;;;4.75;0.90;;;30.00;98.00;;;;;;5033424;28;20025;-68
2022/08/11 11:09:33;;;;;;;2.45;0.70;;;30.10;99.90;;;;;;5033742;28;20028;-67
2022/08/11 11:18:00;;;;;;;7.28;1.02;;;30.70;99.10;;;;;;5032150;28;20307;-68
2022/08/11 11:20:40;;;;;;;1.75;0.73;;;31.00;96.10;;;;;;5033200;28;20026;-68
2022/08/11 11:23:27;;;;;;;2.08;0.93;;;30.90;99.00;;;;;;5033510;28;20025;-69
2022/08/11 11:26:30;;;;;;;3.63;0.90;;;30.80;97.30;;;;;;5032555;28;20167;-69
2022/08/11 11:29:32;;;;;;;2.67;0.80;;;30.90;97.20;;;;;;5033471;28;20022;-67
2022/08/11 11:32:19;;;;;;;1.60;1.10;;;31.00;98.20;;;;;;5032062;28;20421;-67
2022/08/11 11:35:29;;;;;;;4.70;0.93;;;31.50;99.90;;;;;;5033050;28;20311;-67
2022/08/11 11:37:56;;;;;;;1.77;0.75;;;31.80;99.00;;;;;;5013225;28;20036;-67
2022/08/11 11:40:23;;;;;;;4.38;0.95;;;31.80;99.00;;;;;;5035753;28;20030;-67
2022/08/11 11:42:55;;;;;;;3.85;1.25;;;32.10;98.10;;;;;;5037000;28;20022;-69
2022/08/11 11:45:24;;;;;;;1.70;1.00;;;32.00;94.00;;;;;;5035918;28;20473;-70
2022/08/11 11:47:52;;;;;;;5.10;0.90;;;31.80;95.10;;;;;;5037188;28;20022;-70
2022/08/11 11:50:36;;;;;;;1.67;0.65;;;31.70;99.00;;;;;;5037162;28;20017;-70
2022/08/11 11:53:09;;;;;;;2.58;0.80;;;32.20;98.60;;;;;;5037099;28;20461;-70
2022/08/11 11:55:36;;;;;;;4.15;0.90;;;32.10;96.80;;;;;;5036876;28;20033;-70
2022/08/11 12:03:34;;;;;;;4.68;0.93;;;32.50;95.50;;;;;;5036987;28;20032;-70
2022/08/11 12:06:01;;;;;;;1.05;0.70;;;33.10;95.90;;;;;;5037056;28;20018;-68
2022/08/11 12:08:27;;;;;;;2.85;0.90;;;33.70;95.80;;;;;;5036639;28;20030;-68
2022/08/11 12:13:44;;;;;;;2.13;0.77;;;34.70;94.80;;;;;;5035685;28;20395;-68
2022/08/11 12:16:13;;;;;;;1.52;0.52;;;34.60;88.80;;;;;;5036347;28;20045;-68
2022/08/11 12:18:41;;;;;;;3.00;0.80;;;34.30;90.10;;;;;;5036913;28;20026;-68
2022/08/11 12:21:08;;;;;;;5.95;0.82;;;34.50;92.20;;;;;;5036608;28;20029;-70
2022/08/11 12:29:09;;;;;;;1.60;0.70;;;35.40;89.00;;;;;;5016805;28;20488;-68
2022/08/11 12:31:36;;;;;;;2.45;0.93;;;35.80;87.70;;;;;;5016618;28;20063;-68
2022/08/11 12:34:04;;;;;;;1.88;0.90;;;36.10;83.40;;;;;;5016336;28;20097;-70
2022/08/11 12:36:54;;;;;;;1.55;0.40;;;36.50;86.70;;;;;;5016052;28;20509;-68
2022/08/11 12:45:26;;;;;;;4.25;0.60;;;37.00;78.80;;;;;;5016523;28;20371;-68
2022/08/11 12:53:28;;;;;;;2.63;0.80;;;36.10;76.50;;;;;;5017266;28;20029;-69
2022/08/11 12:58:50;;;;;;;2.25;0.65;;;36.80;78.40;;;;;;5036007;28;20079;-68
2022/08/11 13:06:45;;;;;;;2.47;0.93;;;36.70;73.00;;;;;;5036086;28;20068;-68
2022/08/11 13:09:11;;;;;;;6.55;1.02;;;36.30;74.90;;;;;;5034489;28;20045;-69
2022/08/11 13:14:26;;;;;;;3.90;0.80;;;35.90;70.10;;;;;;5035500;28;20036;-70
2022/08/11 13:19:52;;;;;;;5.55;0.88;;;36.00;78.20;;;;;;5001869;28;20029;-70
2022/08/11 13:22:19;;;;;;;2.60;1.25;;;36.10;76.10;;;;;;5035170;28;20032;-70
2022/08/11 13:24:46;;;;;;;2.15;1.08;;;36.40;75.30;;;;;;5033931;28;20124;-70
2022/08/11 13:27:15;;;;;;;6.47;0.95;;;36.50;75.70;;;;;;5034944;28;20108;-70
2022/08/11 13:29:45;;;;;;;2.80;1.02;;;36.20;74.10;;;;;;5035089;28;20025;-68
2022/08/11 13:32:12;;;;;;;5.63;1.10;;;35.80;73.70;;;;;;5034911;28;20018;-68
2022/08/11 13:34:41;;;;;;;2.42;0.80;;;35.50;76.10;;;;;;5035397;28;20033;-70
2022/08/11 13:37:08;;;;;;;2.72;0.75;;;36.10;80.00;;;;;;5033929;28;20036;-70
2022/08/11 13:39:36;;;;;;;5.07;1.23;;;36.50;81.00;;;;;;5034835;28;20038;-70
2022/08/11 13:42:03;;;;;;;4.20;1.27;;;37.30;79.20;;;;;;5034731;28;20374;-68
2022/08/11 13:44:32;;;;;;;2.88;1.00;;;37.70;77.90;;;;;;5034638;28;20022;-68
2022/08/11 13:47:02;;;;;;;8.68;1.50;;;38.10;76.50;;;;;;5034504;28;20461;-69
2022/08/11 13:49:31;;;;;;;6.47;1.17;;;38.20;76.10;;;;;;5034613;28;20481;-69
2022/08/11 13:51:58;;;;;;;2.35;1.10;;;38.20;75.60;;;;;;5033831;28;20060;-69
2022/08/11 13:54:30;;;;;;;3.17;1.10;;;38.40;74.70;;;;;;5034794;28;20087;-69
2022/08/11 13:57:00;;;;;;;5.40;1.20;;;38.30;74.70;;;;;;5034751;28;20505;-69
2022/08/11 13:59:26;;;;;;;5.57;0.75;;;38.30;73.40;;;;;;5034489;28;20030;-69
2022/08/11 14:01:55;;;;;;;2.70;1.25;;;38.40;73.70;;;;;;5034004;28;20052;-69
2022/08/11 14:04:34;;;;;;;3.92;0.90;;;38.40;73.50;;;;;;5032303;28;20043;-68
2022/08/11 14:07:05;;;;;;;1.45;0.73;;;38.50;72.80;;;;;;5034587;28;20021;-68
2022/08/11 14:09:36;;;;;;;5.22;0.93;;;38.70;72.80;;;;;;5034593;28;20021;-68
2022/08/11 14:15:11;;;;;;;4.88;0.65;;;39.20;72.30;;;;;;5034173;28;20512;-68
2022/08/11 14:17:39;;;;;;;3.67;0.98;;;38.70;69.30;;;;;;5032068;28;20033;-69
2022/08/11 14:20:08;;;;;;;2.92;1.10;;;38.50;72.80;;;;;;5034149;28;20021;-69
2022/08/11 14:22:37;;;;;;;3.03;1.00;;;38.10;70.50;;;;;;5033330;28;20072;-69
2022/08/11 14:25:04;;;;;;;1.80;0.88;;;37.20;67.00;;;;;;5033651;28;20029;-69
2022/08/11 14:27:30;;;;;;;3.15;1.20;;;36.40;69.80;;;;;;5034032;28;20021;-70
2022/08/11 14:29:57;;;;;;;3.92;1.15;;;36.00;73.70;;;;;;5033639;28;20093;-70
2022/08/11 14:32:24;;;;;;;2.35;0.98;;;36.10;77.20;;;;;;5032050;28;20033;-70
2022/08/11 14:34:50;;;;;;;11.77;1.20;;;36.50;73.80;;;;;;5031352;28;20087;-70
2022/08/11 14:37:21;;;;;;;5.00;1.10;;;37.00;72.20;;;;;;5032423;28;20052;-70
2022/08/11 14:39:57;;;;;;;4.47;1.52;;;37.40;72.00;;;;;;5014289;28;20393;-70
2022/08/11 14:48:03;;;;;;;12.55;1.35;;;37.70;70.80;;;;;;5013966;28;20398;-71
2022/08/11 14:50:31;;;;;;;3.53;1.10;;;37.60;67.80;;;;;;5013799;28;20033;-70
2022/08/11 14:52:58;;;;;;;4.18;0.80;;;37.50;70.90;;;;;;5032833;28;20112;-71
2022/08/11 14:58:15;;;;;;;7.05;1.42;;;37.40;71.00;;;;;;5034008;28;20029;-69
2022/08/11 15:00:41;;;;;;;3.22;1.10;;;37.40;68.80;;;;;;5033697;28;20032;-69
2022/08/11 15:03:09;;;;;;;1.63;0.73;;;37.30;70.60;;;;;;5033412;28;20021;-69
2022/08/11 15:05:38;;;;;;;3.55;0.90;;;37.50;68.90;;;;;;5032118;28;20374;-69
2022/08/11 15:08:05;;;;;;;9.25;1.45;;;37.70;70.10;;;;;;5032564;28;20107;-70
2022/08/11 15:10:31;;;;;;;3.40;1.50;;;37.60;69.20;;;;;;5033636;28;20465;-70
2022/08/11 15:12:58;;;;;;;2.42;1.00;;;37.50;69.10;;;;;;5033119;28;20366;-70
2022/08/11 15:18:15;;;;;;;4.07;0.90;;;37.50;65.60;;;;;;5033277;28;20552;-71
2022/08/11 15:26:14;;;;;;;3.30;1.35;;;37.10;67.30;;;;;;5013439;28;20401;-71
2022/08/11 15:37:25;;;;;;;6.05;1.40;;;36.80;66.70;;;;;;5033264;28;20040;-69
2022/08/11 15:45:51;;;;;;;2.30;1.20;;;36.70;66.60;;;;;;5033012;28;20096;-69
2022/08/11 15:48:32;;;;;;;10.57;1.17;;;36.30;69.50;;;;;;5031742;28;20034;-69
2022/08/11 15:51:12;;;;;;;13.90;1.58;;;36.40;69.60;;;;;;5032206;28;20088;-69
2022/08/11 15:53:45;;;;;;;14.88;1.50;;;36.50;68.70;;;;;;5033477;28;20033;-68
2022/08/11 15:56:12;;;;;;;7.10;1.27;;;36.40;68.40;;;;;;5032818;28;20025;-69
2022/08/11 16:04:23;;;;;;;1.75;0.98;;;36.00;68.20;;;;;;5033412;28;20150;-71
2022/08/11 16:07:02;;;;;;;6.60;1.27;;;36.00;67.60;;;;;;5032949;28;20021;-70
2022/08/11 16:09:36;;;;;;;9.07;1.40;;;35.70;69.20;;;;;;5032915;28;20492;-70
2022/08/11 16:12:06;;;;;;;2.03;0.98;;;35.70;68.70;;;;;;5032733;28;20497;-69
2022/08/11 16:17:25;;;;;;;4.18;1.33;;;36.00;69.40;;;;;;5031926;28;20112;-69
2022/08/11 16:19:54;;;;;;;5.85;1.45;;;35.90;69.90;;;;;;5031859;28;20034;-69
2022/08/11 16:22:26;;;;;;;8.60;1.35;;;35.80;68.20;;;;;;5032566;28;20493;-69
2022/08/11 16:24:53;;;;;;;2.33;1.00;;;35.70;70.20;;;;;;5032680;28;20036;-70
2022/08/11 16:27:19;;;;;;;9.85;1.30;;;35.90;69.70;;;;;;5036160;28;20033;-69
2022/08/11 16:29:49;;;;;;;5.05;1.30;;;35.90;68.70;;;;;;5036367;28;20381;-68
2022/08/11 16:32:20;;;;;;;3.35;1.42;;;35.60;67.40;;;;;;5036123;28;20029;-68
2022/08/11 16:40:28;;;;;;;7.05;1.25;;;35.40;69.60;;;;;;5035800;28;20032;-69
2022/08/11 16:48:31;;;;;;;6.15;1.10;;;35.10;69.00;;;;;;5035063;28;20041;-69
2022/08/11 16:50:59;;;;;;;4.90;0.95;;;34.50;68.60;;;;;;5036058;28;20389;-69
2022/08/11 16:53:27;;;;;;;3.95;1.23;;;34.30;68.90;;;;;;5035614;28;20064;-69
2022/08/11 16:55:53;;;;;;;5.72;1.38;;;34.20;70.30;;;;;;5035740;28;20049;-70
2022/08/11 17:01:06;;;;;;;7.57;1.45;;;34.30;70.00;;;;;;5035664;28;20079;-71
2022/08/11 17:14:59;;;;;;;4.63;1.13;;;33.70;70.50;;;;;;5035851;28;20109;-71
2022/08/11 17:17:32;;;;;;;2.25;1.27;;;33.60;70.90;;;;;;5035561;28;20021;-71
2022/08/11 17:20:06;;;;;;;3.08;1.05;;;33.60;71.70;;;;;;5033509;28;20033;-71
2022/08/11 17:25:21;;;;;;;5.45;1.42;;;33.40;72.10;;;;;;5032778;28;20132;-68
2022/08/11 17:27:48;;;;;;;0.93;0.70;;;33.20;71.90;;;;;;5033188;28;20029;-68
2022/08/11 17:30:14;;;;;;;3.38;1.27;;;33.00;72.80;;;;;;5035064;28;20030;-68
2022/08/11 17:35:45;;;;;;;15.90;1.17;;;32.80;72.60;;;;;;5035162;28;20063;-70
2022/08/11 17:38:16;;;;;;;13.52;0.93;;;32.50;74.00;;;;;;5033999;28;20026;-70
2022/08/11 17:49:04;;;;;;;3.40;1.10;;;31.60;75.40;;;;;;5035264;28;20406;-68
2022/08/11 17:59:51;;;;;;;1.63;0.93;;;28.40;80.70;;;;;;4984627;28;20038;-70
2022/08/11 18:05:17;;;;;;;5.82;1.90;;;27.10;84.40;;;;;;5017161;28;20080;-70
